sensor_id;sensor_type;location;lat;lon;timestamp;pressure;altitude;pressure_sealevel;temperature;humidity
42587;BME280;28216;53.362;-6.288;2023-03-04T00:01:41;103160.28;;;7.00;94.98
42587;BME280;28216;53.362;-6.288;2023-03-04T00:04:06;103156.06;;;6.98;94.53
42587;BME280;28216;53.362;-6.288;2023-03-04T00:06:32;103153.38;;;6.99;95.21
42587;BME280;28216;53.362;-6.288;2023-03-04T00:08:57;103147.31;;;6.99;95.64
42587;BME280;28216;53.362;-6.288;2023-03-04T00:11:23;103148.25;;;6.98;95.22
42587;BME280;28216;53.362;-6.288;2023-03-04T00:13:48;103149.03;;;7.00;95.23
42587;BME280;28216;53.362;-6.288;2023-03-04T00:16:14;103147.25;;;7.00;95.20
42587;BME280;28216;53.362;-6.288;2023-03-04T00:18:40;103144.56;;;7.02;95.30
42587;BME280;28216;53.362;-6.288;2023-03-04T00:21:05;103145.56;;;6.99;95.17
42587;BME280;28216;53.362;-6.288;2023-03-04T00:23:31;103143.88;;;6.98;95.62
42587;BME280;28216;53.362;-6.288;2023-03-04T00:25:56;103142.13;;;6.99;95.58
42587;BME280;28216;53.362;-6.288;2023-03-04T00:28:22;103142.13;;;6.99;96.06
42587;BME280;28216;53.362;-6.288;2023-03-04T00:30:47;103147.25;;;7.00;96.20
42587;BME280;28216;53.362;-6.288;2023-03-04T00:33:13;103149.09;;;6.98;95.36
42587;BME280;28216;53.362;-6.288;2023-03-04T00:35:39;103143.88;;;6.98;95.53
42587;BME280;28216;53.362;-6.288;2023-03-04T00:38:04;103138.59;;;7.00;95.83
42587;BME280;28216;53.362;-6.288;2023-03-04T00:40:30;103138.50;;;7.01;95.90
42587;BME280;28216;53.362;-6.288;2023-03-04T00:42:55;103146.25;;;7.03;96.02
42587;BME280;28216;53.362;-6.288;2023-03-04T00:45:21;103140.19;;;7.03;95.54
42587;BME280;28216;53.362;-6.288;2023-03-04T00:47:46;103131.53;;;7.02;95.84
42587;BME280;28216;53.362;-6.288;2023-03-04T00:50:11;103122.84;;;7.01;96.42
42587;BME280;28216;53.362;-6.288;2023-03-04T00:52:37;103124.53;;;7.03;96.04
42587;BME280;28216;53.362;-6.288;2023-03-04T00:55:03;103127.22;;;7.01;95.16
42587;BME280;28216;53.362;-6.288;2023-03-04T00:57:28;103125.38;;;7.03;95.49
42587;BME280;28216;53.362;-6.288;2023-03-04T00:59:54;103122.00;;;7.01;95.05
42587;BME280;28216;53.362;-6.288;2023-03-04T01:02:19;103123.84;;;6.99;94.65
42587;BME280;28216;53.362;-6.288;2023-03-04T01:04:45;103122.00;;;7.01;94.79
42587;BME280;28216;53.362;-6.288;2023-03-04T01:07:10;103124.00;;;6.96;94.50
42587;BME280;28216;53.362;-6.288;2023-03-04T01:09:35;103122.31;;;6.95;94.71
42587;BME280;28216;53.362;-6.288;2023-03-04T01:12:02;103131.00;;;6.95;95.42
42587;BME280;28216;53.362;-6.288;2023-03-04T01:14:27;103131.84;;;6.96;95.54
42587;BME280;28216;53.362;-6.288;2023-03-04T01:16:53;103132.75;;;6.95;95.63
42587;BME280;28216;53.362;-6.288;2023-03-04T01:19:18;103131.84;;;6.96;95.52
42587;BME280;28216;53.362;-6.288;2023-03-04T01:21:44;103128.38;;;6.95;95.24
42587;BME280;28216;53.362;-6.288;2023-03-04T01:24:09;103133.59;;;6.95;95.46
42587;BME280;28216;53.362;-6.288;2023-03-04T01:26:35;103135.38;;;6.95;94.93
42587;BME280;28216;53.362;-6.288;2023-03-04T01:29:02;103138.91;;;6.94;94.72
42587;BME280;28216;53.362;-6.288;2023-03-04T01:31:27;103139.03;;;6.91;94.76
42587;BME280;28216;53.362;-6.288;2023-03-04T01:33:53;103139.13;;;6.89;94.96
42587;BME280;28216;53.362;-6.288;2023-03-04T01:36:18;103152.00;;;6.92;95.23
42587;BME280;28216;53.362;-6.288;2023-03-04T01:38:44;103141.66;;;6.91;94.43
42587;BME280;28216;53.362;-6.288;2023-03-04T01:41:11;103144.41;;;6.88;94.21
42587;BME280;28216;53.362;-6.288;2023-03-04T01:43:38;103140.97;;;6.87;93.25
42587;BME280;28216;53.362;-6.288;2023-03-04T01:46:04;103140.97;;;6.87;93.19
42587;BME280;28216;53.362;-6.288;2023-03-04T01:48:35;103144.41;;;6.88;92.94
42587;BME280;28216;53.362;-6.288;2023-03-04T01:51:03;103133.06;;;6.89;92.91
42587;BME280;28216;53.362;-6.288;2023-03-04T01:53:30;103132.91;;;6.92;92.71
42587;BME280;28216;53.362;-6.288;2023-03-04T01:56:00;103135.53;;;6.92;92.86
42587;BME280;28216;53.362;-6.288;2023-03-04T01:58:29;103136.53;;;6.89;93.34
42587;BME280;28216;53.362;-6.288;2023-03-04T02:00:56;103133.91;;;6.89;93.93
42587;BME280;28216;53.362;-6.288;2023-03-04T02:03:22;103133.00;;;6.90;94.23
42587;BME280;28216;53.362;-6.288;2023-03-04T02:05:50;103128.63;;;6.91;93.74
42587;BME280;28216;53.362;-6.288;2023-03-04T02:08:19;103121.09;;;6.85;93.38
42587;BME280;28216;53.362;-6.288;2023-03-04T02:10:46;103127.25;;;6.84;93.17
42587;BME280;28216;53.362;-6.288;2023-03-04T02:13:13;103127.41;;;6.81;93.59
42587;BME280;28216;53.362;-6.288;2023-03-04T02:15:38;103128.31;;;6.80;93.64
42587;BME280;28216;53.362;-6.288;2023-03-04T02:18:24;103124.25;;;6.74;92.92
42587;BME280;28216;53.362;-6.288;2023-03-04T02:21:16;103124.41;;;6.71;92.95
42587;BME280;28216;53.362;-6.288;2023-03-04T02:26:13;103119.38;;;6.66;93.34
42587;BME280;28216;53.362;-6.288;2023-03-04T02:28:40;103117.69;;;6.65;93.66
42587;BME280;28216;53.362;-6.288;2023-03-04T02:31:06;103116.84;;;6.65;93.71
42587;BME280;28216;53.362;-6.288;2023-03-04T02:33:31;103115.16;;;6.64;93.71
42587;BME280;28216;53.362;-6.288;2023-03-04T02:35:57;103114.25;;;6.65;94.13
42587;BME280;28216;53.362;-6.288;2023-03-04T02:38:23;103117.16;;;6.59;94.43
42587;BME280;28216;53.362;-6.288;2023-03-04T02:40:50;103117.09;;;6.60;94.57
42587;BME280;28216;53.362;-6.288;2023-03-04T02:43:18;103110.09;;;6.61;95.05
42587;BME280;28216;53.362;-6.288;2023-03-04T02:45:47;103108.50;;;6.58;95.34
42587;BME280;28216;53.362;-6.288;2023-03-04T02:48:16;103104.97;;;6.59;95.95
42587;BME280;28216;53.362;-6.288;2023-03-04T02:50:48;103106.66;;;6.60;96.21
42587;BME280;28216;53.362;-6.288;2023-03-04T02:53:14;103111.88;;;6.60;96.10
42587;BME280;28216;53.362;-6.288;2023-03-04T02:55:40;103109.19;;;6.62;96.09
42587;BME280;28216;53.362;-6.288;2023-03-04T02:58:08;103116.16;;;6.61;96.21
42587;BME280;28216;53.362;-6.288;2023-03-04T03:00:34;103116.16;;;6.61;95.74
42587;BME280;28216;53.362;-6.288;2023-03-04T03:03:00;103115.41;;;6.59;96.08
42587;BME280;28216;53.362;-6.288;2023-03-04T03:05:28;103111.94;;;6.59;95.64
42587;BME280;28216;53.362;-6.288;2023-03-04T03:07:54;103110.25;;;6.58;95.92
42587;BME280;28216;53.362;-6.288;2023-03-04T03:10:20;103110.34;;;6.56;95.74
42587;BME280;28216;53.362;-6.288;2023-03-04T03:12:45;103105.91;;;6.58;95.92
42587;BME280;28216;53.362;-6.288;2023-03-04T03:15:11;103106.81;;;6.57;95.23
42587;BME280;28216;53.362;-6.288;2023-03-04T03:17:37;103103.38;;;6.57;94.79
42587;BME280;28216;53.362;-6.288;2023-03-04T03:20:03;103105.19;;;6.55;94.32
42587;BME280;28216;53.362;-6.288;2023-03-04T03:22:29;103112.03;;;6.57;94.07
42587;BME280;28216;53.362;-6.288;2023-03-04T03:24:54;103107.13;;;6.51;94.47
42587;BME280;28216;53.362;-6.288;2023-03-04T03:27:20;103109.03;;;6.48;94.37
42587;BME280;28216;53.362;-6.288;2023-03-04T03:29:45;103104.03;;;6.43;94.47
42587;BME280;28216;53.362;-6.288;2023-03-04T03:32:11;103097.22;;;6.41;94.60
42587;BME280;28216;53.362;-6.288;2023-03-04T03:34:36;103107.56;;;6.42;94.61
42587;BME280;28216;53.362;-6.288;2023-03-04T03:37:01;103098.97;;;6.40;94.29
42587;BME280;28216;53.362;-6.288;2023-03-04T03:39:27;103094.63;;;6.41;94.83
42587;BME280;28216;53.362;-6.288;2023-03-04T03:41:52;103095.75;;;6.35;94.94
42587;BME280;28216;53.362;-6.288;2023-03-04T03:44:18;103098.22;;;6.38;94.48
42587;BME280;28216;53.362;-6.288;2023-03-04T03:46:43;103095.53;;;6.40;94.52
42587;BME280;28216;53.362;-6.288;2023-03-04T03:49:09;103091.38;;;6.35;94.01
42587;BME280;28216;53.362;-6.288;2023-03-04T03:51:34;103090.53;;;6.35;94.05
42587;BME280;28216;53.362;-6.288;2023-03-04T03:54:00;103090.69;;;6.32;94.02
42587;BME280;28216;53.362;-6.288;2023-03-04T03:56:25;103092.59;;;6.28;93.62
42587;BME280;28216;53.362;-6.288;2023-03-04T03:58:51;103087.53;;;6.25;94.19
42587;BME280;28216;53.362;-6.288;2023-03-04T04:01:16;103090.84;;;6.29;94.16
42587;BME280;28216;53.362;-6.288;2023-03-04T04:03:41;103088.09;;;6.32;93.83
42587;BME280;28216;53.362;-6.288;2023-03-04T04:06:07;103096.69;;;6.34;94.20
42587;BME280;28216;53.362;-6.288;2023-03-04T04:08:32;103096.75;;;6.32;94.44
42587;BME280;28216;53.362;-6.288;2023-03-04T04:10:58;103094.28;;;6.29;94.54
42587;BME280;28216;53.362;-6.288;2023-03-04T04:13:23;103080.34;;;6.30;94.87
42587;BME280;28216;53.362;-6.288;2023-03-04T04:15:52;103093.38;;;6.30;95.16
42587;BME280;28216;53.362;-6.288;2023-03-04T04:18:18;103096.75;;;6.32;95.21
42587;BME280;28216;53.362;-6.288;2023-03-04T04:20:43;103095.84;;;6.33;95.15
42587;BME280;28216;53.362;-6.288;2023-03-04T04:23:09;103095.84;;;6.33;95.13
42587;BME280;28216;53.362;-6.288;2023-03-04T04:25:35;103102.81;;;6.33;94.76
42587;BME280;28216;53.362;-6.288;2023-03-04T04:28:00;103093.44;;;6.29;95.05
42587;BME280;28216;53.362;-6.288;2023-03-04T04:30:26;103096.81;;;6.31;95.16
42587;BME280;28216;53.362;-6.288;2023-03-04T04:32:51;103089.94;;;6.30;95.18
42587;BME280;28216;53.362;-6.288;2023-03-04T04:35:17;103085.56;;;6.30;95.16
42587;BME280;28216;53.362;-6.288;2023-03-04T04:37:42;103089.16;;;6.28;95.09
42587;BME280;28216;53.362;-6.288;2023-03-04T04:40:08;103084.78;;;6.28;95.26
42587;BME280;28216;53.362;-6.288;2023-03-04T04:42:34;103084.16;;;6.23;94.80
42587;BME280;28216;53.362;-6.288;2023-03-04T04:44:59;103091.00;;;6.26;94.66
42587;BME280;28216;53.362;-6.288;2023-03-04T04:47:25;103095.44;;;6.24;94.58
42587;BME280;28216;53.362;-6.288;2023-03-04T04:49:50;103091.75;;;6.28;93.99
42587;BME280;28216;53.362;-6.288;2023-03-04T04:52:16;103095.13;;;6.30;94.03
42587;BME280;28216;53.362;-6.288;2023-03-04T04:54:42;103095.91;;;6.32;93.85
42587;BME280;28216;53.362;-6.288;2023-03-04T04:57:07;103093.22;;;6.33;94.06
42587;BME280;28216;53.362;-6.288;2023-03-04T04:59:32;103097.53;;;6.34;93.63
42587;BME280;28216;53.362;-6.288;2023-03-04T05:01:58;103094.00;;;6.35;93.68
42587;BME280;28216;53.362;-6.288;2023-03-04T05:04:24;103096.75;;;6.32;93.80
42587;BME280;28216;53.362;-6.288;2023-03-04T05:06:49;103090.16;;;6.25;93.75
42587;BME280;28216;53.362;-6.288;2023-03-04T05:09:15;103095.28;;;6.27;93.43
42587;BME280;28216;53.362;-6.288;2023-03-04T05:11:40;103096.06;;;6.29;93.45
42587;BME280;28216;53.362;-6.288;2023-03-04T05:14:06;103096.97;;;6.28;93.67
42587;BME280;28216;53.362;-6.288;2023-03-04T05:16:31;103096.28;;;6.24;93.61
42587;BME280;28216;53.362;-6.288;2023-03-04T05:18:57;103099.81;;;6.23;94.01
42587;BME280;28216;53.362;-6.288;2023-03-04T05:21:23;103098.97;;;6.23;94.07
42587;BME280;28216;53.362;-6.288;2023-03-04T05:23:48;103106.00;;;6.21;94.05
42587;BME280;28216;53.362;-6.288;2023-03-04T05:26:16;103106.00;;;6.21;93.89
42587;BME280;28216;53.362;-6.288;2023-03-04T05:28:41;103105.22;;;6.19;93.99
42587;BME280;28216;53.362;-6.288;2023-03-04T05:31:07;103109.53;;;6.20;93.68
42587;BME280;28216;53.362;-6.288;2023-03-04T05:33:32;103106.91;;;6.20;94.07
42587;BME280;28216;53.362;-6.288;2023-03-04T05:35:58;103099.03;;;6.21;93.65
42587;BME280;28216;53.362;-6.288;2023-03-04T05:38:24;103106.84;;;6.21;93.42
42587;BME280;28216;53.362;-6.288;2023-03-04T05:40:55;103109.44;;;6.21;93.17
42587;BME280;28216;53.362;-6.288;2023-03-04T05:43:21;103106.63;;;6.26;93.23
42587;BME280;28216;53.362;-6.288;2023-03-04T05:45:48;103115.56;;;6.20;92.95
42587;BME280;28216;53.362;-6.288;2023-03-04T05:48:14;103110.22;;;6.23;92.56
42587;BME280;28216;53.362;-6.288;2023-03-04T05:50:39;103108.47;;;6.24;92.15
42587;BME280;28216;53.362;-6.288;2023-03-04T05:53:05;103101.50;;;6.24;92.26
42587;BME280;28216;53.362;-6.288;2023-03-04T05:55:30;103113.81;;;6.21;92.23
42587;BME280;28216;53.362;-6.288;2023-03-04T05:57:56;103110.22;;;6.23;92.32
42587;BME280;28216;53.362;-6.288;2023-03-04T06:00:23;103107.97;;;6.16;92.44
42587;BME280;28216;53.362;-6.288;2023-03-04T06:02:49;103109.53;;;6.20;92.28
42587;BME280;28216;53.362;-6.288;2023-03-04T06:05:15;103116.56;;;6.18;91.95
42587;BME280;28216;53.362;-6.288;2023-03-04T06:07:41;103113.13;;;6.17;91.36
42587;BME280;28216;53.362;-6.288;2023-03-04T06:10:12;103116.50;;;6.19;91.30
42587;BME280;28216;53.362;-6.288;2023-03-04T06:12:38;103113.13;;;6.17;91.11
42587;BME280;28216;53.362;-6.288;2023-03-04T06:15:04;103110.72;;;6.13;91.09
42587;BME280;28216;53.362;-6.288;2023-03-04T06:17:30;103115.94;;;6.13;91.35
42587;BME280;28216;53.362;-6.288;2023-03-04T06:19:56;103112.72;;;6.08;91.35
42587;BME280;28216;53.362;-6.288;2023-03-04T06:22:21;103121.50;;;6.05;91.58
42587;BME280;28216;53.362;-6.288;2023-03-04T06:24:46;103124.03;;;6.07;91.70
42587;BME280;28216;53.362;-6.288;2023-03-04T06:27:12;103111.88;;;6.07;91.89
42587;BME280;28216;53.362;-6.288;2023-03-04T06:29:38;103120.53;;;6.08;91.63
42587;BME280;28216;53.362;-6.288;2023-03-04T06:32:03;103118.13;;;6.03;91.67
42587;BME280;28216;53.362;-6.288;2023-03-04T06:34:30;103119.69;;;6.07;91.41
42587;BME280;28216;53.362;-6.288;2023-03-04T06:36:58;103123.34;;;6.03;91.42
42587;BME280;28216;53.362;-6.288;2023-03-04T06:39:23;103123.41;;;6.01;91.00
42587;BME280;28216;53.362;-6.288;2023-03-04T06:41:49;103115.75;;;5.98;91.26
42587;BME280;28216;53.362;-6.288;2023-03-04T06:44:14;103119.28;;;5.97;91.05
42587;BME280;28216;53.362;-6.288;2023-03-04T06:46:39;103114.75;;;6.01;91.03
42587;BME280;28216;53.362;-6.288;2023-03-04T06:49:05;103120.03;;;5.99;91.09
42587;BME280;28216;53.362;-6.288;2023-03-04T06:51:30;103115.75;;;5.98;91.15
42587;BME280;28216;53.362;-6.288;2023-03-04T06:53:56;103107.94;;;5.98;91.02
42587;BME280;28216;53.362;-6.288;2023-03-04T06:56:21;103125.09;;;6.02;90.78
42587;BME280;28216;53.362;-6.288;2023-03-04T06:58:47;103119.84;;;6.04;90.38
42587;BME280;28216;53.362;-6.288;2023-03-04T07:01:15;103123.28;;;6.04;90.46
42587;BME280;28216;53.362;-6.288;2023-03-04T07:03:41;103114.84;;;5.99;90.15
42587;BME280;28216;53.362;-6.288;2023-03-04T07:06:09;103116.59;;;5.99;89.53
42587;BME280;28216;53.362;-6.288;2023-03-04T07:08:37;103118.13;;;6.03;89.88
42587;BME280;28216;53.362;-6.288;2023-03-04T07:11:03;103114.69;;;6.02;89.67
42587;BME280;28216;53.362;-6.288;2023-03-04T07:13:29;103118.06;;;6.04;89.64
42587;BME280;28216;53.362;-6.288;2023-03-04T07:15:54;103112.94;;;6.03;89.30
42587;BME280;28216;53.362;-6.288;2023-03-04T07:18:20;103111.16;;;6.03;88.93
42587;BME280;28216;53.362;-6.288;2023-03-04T07:20:45;103114.69;;;6.02;88.83
42587;BME280;28216;53.362;-6.288;2023-03-04T07:23:11;103113.16;;;5.98;88.67
42587;BME280;28216;53.362;-6.288;2023-03-04T07:25:36;103126.03;;;6.01;88.80
42587;BME280;28216;53.362;-6.288;2023-03-04T07:28:02;103125.94;;;6.03;88.77
42587;BME280;28216;53.362;-6.288;2023-03-04T07:30:27;103122.38;;;6.05;88.77
42587;BME280;28216;53.362;-6.288;2023-03-04T07:32:56;103120.66;;;6.04;88.92
42587;BME280;28216;53.362;-6.288;2023-03-04T07:35:21;103124.19;;;6.03;88.67
42587;BME280;28216;53.362;-6.288;2023-03-04T07:37:48;103128.63;;;6.01;88.92
42587;BME280;28216;53.362;-6.288;2023-03-04T07:40:13;103130.38;;;6.01;88.60
42587;BME280;28216;53.362;-6.288;2023-03-04T07:42:39;103125.25;;;5.99;88.75
42587;BME280;28216;53.362;-6.288;2023-03-04T07:45:05;103127.56;;;6.05;88.66
42587;BME280;28216;53.362;-6.288;2023-03-04T07:47:30;103128.47;;;6.04;88.36
42587;BME280;28216;53.362;-6.288;2023-03-04T07:49:56;103132.06;;;6.02;88.26
42587;BME280;28216;53.362;-6.288;2023-03-04T07:52:21;103128.84;;;5.97;88.08
42587;BME280;28216;53.362;-6.288;2023-03-04T07:54:47;103131.44;;;5.97;88.01
42587;BME280;28216;53.362;-6.288;2023-03-04T07:57:12;103132.16;;;6.00;88.26
42587;BME280;28216;53.362;-6.288;2023-03-04T07:59:43;103143.34;;;6.02;88.29
42587;BME280;28216;53.362;-6.288;2023-03-04T08:02:12;103140.59;;;6.05;88.07
42587;BME280;28216;53.362;-6.288;2023-03-04T08:04:37;103131.16;;;6.03;87.88
42587;BME280;28216;53.362;-6.288;2023-03-04T08:07:09;103139.03;;;6.01;88.08
42587;BME280;28216;53.362;-6.288;2023-03-04T08:09:34;103143.34;;;6.02;88.35
42587;BME280;28216;53.362;-6.288;2023-03-04T08:12:00;103144.19;;;6.03;87.64
42587;BME280;28216;53.362;-6.288;2023-03-04T08:14:25;103143.56;;;5.98;87.78
42587;BME280;28216;53.362;-6.288;2023-03-04T08:16:51;103143.41;;;6.01;88.20
42587;BME280;28216;53.362;-6.288;2023-03-04T08:19:16;103153.75;;;6.02;88.14
42587;BME280;28216;53.362;-6.288;2023-03-04T08:21:42;103161.34;;;6.07;88.27
42587;BME280;28216;53.362;-6.288;2023-03-04T08:24:09;103161.28;;;6.09;88.10
42587;BME280;28216;53.362;-6.288;2023-03-04T08:26:39;103157.53;;;6.14;87.73
42587;BME280;28216;53.362;-6.288;2023-03-04T08:29:10;103157.63;;;6.13;88.45
42587;BME280;28216;53.362;-6.288;2023-03-04T08:31:36;103154.16;;;6.12;87.91
42587;BME280;28216;53.362;-6.288;2023-03-04T08:34:04;103153.09;;;6.16;88.15
42587;BME280;28216;53.362;-6.288;2023-03-04T08:36:30;103152.97;;;6.19;88.62
42587;BME280;28216;53.362;-6.288;2023-03-04T08:38:55;103153.94;;;6.17;88.11
42587;BME280;28216;53.362;-6.288;2023-03-04T08:41:46;103153.88;;;6.18;87.13
42587;BME280;28216;53.362;-6.288;2023-03-04T08:44:12;103151.97;;;6.22;87.58
42587;BME280;28216;53.362;-6.288;2023-03-04T08:46:40;103148.59;;;6.20;87.70
42587;BME280;28216;53.362;-6.288;2023-03-04T08:49:06;103150.22;;;6.22;88.18
42587;BME280;28216;53.362;-6.288;2023-03-04T08:51:33;103146.69;;;6.23;87.98
42587;BME280;28216;53.362;-6.288;2023-03-04T08:54:00;103150.78;;;6.29;88.61
42587;BME280;28216;53.362;-6.288;2023-03-04T08:56:26;103150.63;;;6.32;88.42
42587;BME280;28216;53.362;-6.288;2023-03-04T08:58:51;103143.72;;;6.31;87.81
42587;BME280;28216;53.362;-6.288;2023-03-04T09:01:17;103147.47;;;6.25;87.96
42587;BME280;28216;53.362;-6.288;2023-03-04T09:03:42;103157.13;;;6.23;87.85
42587;BME280;28216;53.362;-6.288;2023-03-04T09:06:12;103150.69;;;6.30;87.27
42587;BME280;28216;53.362;-6.288;2023-03-04T09:08:37;103148.31;;;6.26;86.86
42587;BME280;28216;53.362;-6.288;2023-03-04T09:11:03;103145.34;;;6.33;86.96
42587;BME280;28216;53.362;-6.288;2023-03-04T09:13:30;103144.28;;;6.37;87.21
42587;BME280;28216;53.362;-6.288;2023-03-04T09:15:56;103150.41;;;6.36;87.79
42587;BME280;28216;53.362;-6.288;2023-03-04T09:18:22;103141.59;;;6.39;87.65
42587;BME280;28216;53.362;-6.288;2023-03-04T09:20:48;103139.69;;;6.43;86.71
42587;BME280;28216;53.362;-6.288;2023-03-04T09:23:14;103135.47;;;6.40;86.68
42587;BME280;28216;53.362;-6.288;2023-03-04T09:25:40;103146.50;;;6.45;87.02
42587;BME280;28216;53.362;-6.288;2023-03-04T09:28:06;103142.00;;;6.49;87.73
42587;BME280;28216;53.362;-6.288;2023-03-04T09:30:32;103144.53;;;6.50;87.52
42587;BME280;28216;53.362;-6.288;2023-03-04T09:32:58;103139.75;;;6.41;87.08
42587;BME280;28216;53.362;-6.288;2023-03-04T09:35:24;103142.97;;;6.46;87.20
42587;BME280;28216;53.362;-6.288;2023-03-04T09:37:49;103145.97;;;6.38;87.52
42587;BME280;28216;53.362;-6.288;2023-03-04T09:40:20;103146.72;;;6.41;86.73
42587;BME280;28216;53.362;-6.288;2023-03-04T09:42:49;103149.19;;;6.44;86.75
42587;BME280;28216;53.362;-6.288;2023-03-04T09:45:19;103155.88;;;6.49;86.50
42587;BME280;28216;53.362;-6.288;2023-03-04T09:47:46;103155.03;;;6.49;86.42
42587;BME280;28216;53.362;-6.288;2023-03-04T09:50:12;103159.16;;;6.53;86.18
42587;BME280;28216;53.362;-6.288;2023-03-04T09:55:27;103158.41;;;6.51;85.02
42587;BME280;28216;53.362;-6.288;2023-03-04T10:00:42;103156.63;;;6.51;85.01
42587;BME280;28216;53.362;-6.288;2023-03-04T10:05:45;103156.56;;;6.53;84.41
42587;BME280;28216;53.362;-6.288;2023-03-04T10:08:43;103158.94;;;6.57;83.38
42587;BME280;28216;53.362;-6.288;2023-03-04T10:11:22;103159.56;;;6.62;84.10
42587;BME280;28216;53.362;-6.288;2023-03-04T10:16:38;103153.88;;;6.54;83.37
42587;BME280;28216;53.362;-6.288;2023-03-04T10:19:49;103151.75;;;6.62;83.10
42587;BME280;28216;53.362;-6.288;2023-03-04T10:24:55;103143.91;;;6.62;83.07
42587;BME280;28216;53.362;-6.288;2023-03-04T10:27:21;103146.19;;;6.70;82.85
42587;BME280;28216;53.362;-6.288;2023-03-04T10:29:49;103142.50;;;6.74;82.40
42587;BME280;28216;53.362;-6.288;2023-03-04T10:32:19;103144.34;;;6.72;82.26
42587;BME280;28216;53.362;-6.288;2023-03-04T10:34:45;103148.63;;;6.73;82.22
42587;BME280;28216;53.362;-6.288;2023-03-04T10:37:11;103145.19;;;6.73;81.70
42587;BME280;28216;53.362;-6.288;2023-03-04T10:39:42;103142.34;;;6.77;80.87
42587;BME280;28216;53.362;-6.288;2023-03-04T10:44:51;103140.19;;;6.85;80.12
42587;BME280;28216;53.362;-6.288;2023-03-04T10:47:17;103135.97;;;6.83;80.68
42587;BME280;28216;53.362;-6.288;2023-03-04T10:50:12;103131.78;;;6.80;78.90
42587;BME280;28216;53.362;-6.288;2023-03-04T10:52:46;103127.94;;;6.87;79.92
42587;BME280;28216;53.362;-6.288;2023-03-04T10:55:19;103122.78;;;6.86;78.72
42587;BME280;28216;53.362;-6.288;2023-03-04T10:58:01;103121.25;;;6.82;77.74
42587;BME280;28216;53.362;-6.288;2023-03-04T11:00:30;103114.88;;;6.87;78.43
42587;BME280;28216;53.362;-6.288;2023-03-04T11:05:46;103119.88;;;6.92;77.92
42587;BME280;28216;53.362;-6.288;2023-03-04T11:08:22;103117.03;;;6.96;77.53
42587;BME280;28216;53.362;-6.288;2023-03-04T11:10:50;103119.78;;;6.93;77.52
42587;BME280;28216;53.362;-6.288;2023-03-04T11:13:23;103114.34;;;6.98;77.71
42587;BME280;28216;53.362;-6.288;2023-03-04T11:16:01;103109.81;;;7.01;78.05
42587;BME280;28216;53.362;-6.288;2023-03-04T11:18:46;103111.34;;;7.06;77.30
42587;BME280;28216;53.362;-6.288;2023-03-04T11:21:26;103120.78;;;7.08;77.53
42587;BME280;28216;53.362;-6.288;2023-03-04T11:24:01;103110.19;;;7.11;77.98
42587;BME280;28216;53.362;-6.288;2023-03-04T11:26:39;103110.56;;;7.04;76.94
42587;BME280;28216;53.362;-6.288;2023-03-04T11:29:12;103102.28;;;7.13;77.85
42587;BME280;28216;53.362;-6.288;2023-03-04T11:44:37;103097.22;;;7.43;76.85
42587;BME280;28216;53.362;-6.288;2023-03-04T11:55:45;103093.53;;;7.47;75.21
42587;BME280;28216;53.362;-6.288;2023-03-04T12:12:30;103080.66;;;7.44;75.08
42587;BME280;28216;53.362;-6.288;2023-03-04T12:26:52;103081.41;;;7.46;73.79
42587;BME280;28216;53.362;-6.288;2023-03-04T12:31:40;103075.81;;;7.36;74.50
42587;BME280;28216;53.362;-6.288;2023-03-04T12:40:02;103067.53;;;7.45;73.71
42587;BME280;28216;53.362;-6.288;2023-03-04T12:42:48;103068.03;;;7.52;73.39
42587;BME280;28216;53.362;-6.288;2023-03-04T12:45:29;103066.78;;;7.59;73.94
42587;BME280;28216;53.362;-6.288;2023-03-04T12:48:08;103056.94;;;7.64;73.91
42587;BME280;28216;53.362;-6.288;2023-03-04T12:54:11;103059.38;;;7.67;74.04
42587;BME280;28216;53.362;-6.288;2023-03-04T12:57:12;103053.31;;;7.67;74.33
42587;BME280;28216;53.362;-6.288;2023-03-04T12:59:36;103053.03;;;7.71;73.47
42587;BME280;28216;53.362;-6.288;2023-03-04T13:02:28;103044.47;;;7.69;73.19
42587;BME280;28216;53.362;-6.288;2023-03-04T13:10:16;103040.66;;;7.75;72.98
42587;BME280;28216;53.362;-6.288;2023-03-04T13:12:52;103027.34;;;7.79;72.46
42587;BME280;28216;53.362;-6.288;2023-03-04T13:17:58;103017.84;;;7.78;72.62
42587;BME280;28216;53.362;-6.288;2023-03-04T13:20:33;103022.88;;;7.81;72.15
42587;BME280;28216;53.362;-6.288;2023-03-04T13:25:46;103021.19;;;7.80;72.44
42587;BME280;28216;53.362;-6.288;2023-03-04T13:28:14;103012.59;;;7.78;73.03
42587;BME280;28216;53.362;-6.288;2023-03-04T13:41:20;102992.31;;;7.83;71.12
42587;BME280;28216;53.362;-6.288;2023-03-04T13:43:53;102983.28;;;7.89;72.38
42587;BME280;28216;53.362;-6.288;2023-03-04T13:51:41;102981.09;;;7.81;71.40
42587;BME280;28216;53.362;-6.288;2023-03-04T13:54:28;102973.75;;;7.88;70.78
42587;BME280;28216;53.362;-6.288;2023-03-04T14:04:35;102975.44;;;7.89;71.42
42587;BME280;28216;53.362;-6.288;2023-03-04T14:07:16;102967.94;;;7.83;71.58
42587;BME280;28216;53.362;-6.288;2023-03-04T14:10:03;102966.44;;;7.79;71.33
42587;BME280;28216;53.362;-6.288;2023-03-04T14:12:53;102962.81;;;7.81;69.88
42587;BME280;28216;53.362;-6.288;2023-03-04T14:15:25;102968.22;;;7.78;71.43
42587;BME280;28216;53.362;-6.288;2023-03-04T14:18:00;102963.16;;;7.75;71.28
42587;BME280;28216;53.362;-6.288;2023-03-04T14:20:35;102962.41;;;7.73;70.38
42587;BME280;28216;53.362;-6.288;2023-03-04T14:23:05;102961.31;;;7.77;71.01
42587;BME280;28216;53.362;-6.288;2023-03-04T14:25:46;102958.03;;;7.74;71.08
42587;BME280;28216;53.362;-6.288;2023-03-04T14:28:14;102955.00;;;7.65;71.74
42587;BME280;28216;53.362;-6.288;2023-03-04T14:30:50;102950.38;;;7.71;71.02
42587;BME280;28216;53.362;-6.288;2023-03-04T14:33:35;102947.59;;;7.74;71.10
42587;BME280;28216;53.362;-6.288;2023-03-04T14:36:01;102948.25;;;7.77;71.76
42587;BME280;28216;53.362;-6.288;2023-03-04T14:38:30;102937.66;;;7.64;71.86
42587;BME280;28216;53.362;-6.288;2023-03-04T14:41:01;102944.91;;;7.59;72.07
42587;BME280;28216;53.362;-6.288;2023-03-04T14:43:30;102941.88;;;7.67;72.13
42587;BME280;28216;53.362;-6.288;2023-03-04T14:45:59;102942.03;;;7.64;72.39
42587;BME280;28216;53.362;-6.288;2023-03-04T14:48:30;102933.78;;;7.72;72.37
42587;BME280;28216;53.362;-6.288;2023-03-04T14:50:57;102930.84;;;7.62;72.24